sensor_id;sensor_type;location;lat;lon;timestamp;temperature;humidity
37530;DHT22;23374;52.758;6.872;2024-02-28T00:00:53;3.00;1.00
37530;DHT22;23374;52.758;6.872;2024-02-28T00:03:13;2.90;1.00
37530;DHT22;23374;52.758;6.872;2024-02-28T00:05:34;2.90;1.00
37530;DHT22;23374;52.758;6.872;2024-02-28T00:07:55;2.90;1.00
37530;DHT22;23374;52.758;6.872;2024-02-28T00:10:16;2.80;1.00
37530;DHT22;23374;52.758;6.872;2024-02-28T00:12:38;2.70;1.00
37530;DHT22;23374;52.758;6.872;2024-02-28T00:14:59;2.70;1.00
37530;DHT22;23374;52.758;6.872;2024-02-28T00:17:19;2.70;21.40
37530;DHT22;23374;52.758;6.872;2024-02-28T00:19:40;2.70;89.90
37530;DHT22;23374;52.758;6.872;2024-02-28T00:22:00;2.70;19.00
37530;DHT22;23374;52.758;6.872;2024-02-28T00:24:21;2.70;99.90
37530;DHT22;23374;52.758;6.872;2024-02-28T00:26:42;2.70;99.90
37530;DHT22;23374;52.758;6.872;2024-02-28T00:29:03;2.60;99.90
37530;DHT22;23374;52.758;6.872;2024-02-28T00:31:24;2.60;99.90
37530;DHT22;23374;52.758;6.872;2024-02-28T00:33:44;2.70;99.90
37530;DHT22;23374;52.758;6.872;2024-02-28T00:36:05;2.70;99.90
37530;DHT22;23374;52.758;6.872;2024-02-28T00:38:25;2.70;99.90
37530;DHT22;23374;52.758;6.872;2024-02-28T00:40:47;2.80;1.00
37530;DHT22;23374;52.758;6.872;2024-02-28T00:43:08;2.80;1.00
37530;DHT22;23374;52.758;6.872;2024-02-28T00:45:28;2.80;99.90
37530;DHT22;23374;52.758;6.872;2024-02-28T00:47:48;2.80;99.90
37530;DHT22;23374;52.758;6.872;2024-02-28T00:50:09;2.80;99.90
37530;DHT22;23374;52.758;6.872;2024-02-28T00:52:30;2.70;99.90
37530;DHT22;23374;52.758;6.872;2024-02-28T00:54:52;2.70;1.00
37530;DHT22;23374;52.758;6.872;2024-02-28T00:57:12;2.80;1.00
37530;DHT22;23374;52.758;6.872;2024-02-28T01:01:13;2.80;1.00
37530;DHT22;23374;52.758;6.872;2024-02-28T01:03:33;2.70;1.00
37530;DHT22;23374;52.758;6.872;2024-02-28T01:05:54;2.70;1.00
37530;DHT22;23374;52.758;6.872;2024-02-28T01:08:14;2.70;1.00
37530;DHT22;23374;52.758;6.872;2024-02-28T01:10:37;2.70;1.00
37530;DHT22;23374;52.758;6.872;2024-02-28T01:12:58;2.70;1.00
37530;DHT22;23374;52.758;6.872;2024-02-28T01:15:18;2.60;1.00
37530;DHT22;23374;52.758;6.872;2024-02-28T01:17:39;2.60;1.00
37530;DHT22;23374;52.758;6.872;2024-02-28T01:19:59;2.60;1.00
37530;DHT22;23374;52.758;6.872;2024-02-28T01:22:19;2.70;1.00
37530;DHT22;23374;52.758;6.872;2024-02-28T01:24:39;2.70;1.00
37530;DHT22;23374;52.758;6.872;2024-02-28T01:27:00;2.70;1.00
37530;DHT22;23374;52.758;6.872;2024-02-28T01:29:20;2.70;1.00
37530;DHT22;23374;52.758;6.872;2024-02-28T01:31:40;2.70;95.60
37530;DHT22;23374;52.758;6.872;2024-02-28T01:34:01;2.70;99.90
37530;DHT22;23374;52.758;6.872;2024-02-28T01:36:21;2.80;99.90
37530;DHT22;23374;52.758;6.872;2024-02-28T01:38:42;2.80;99.90
37530;DHT22;23374;52.758;6.872;2024-02-28T01:41:02;2.80;99.90
37530;DHT22;23374;52.758;6.872;2024-02-28T01:43:24;2.90;99.90
37530;DHT22;23374;52.758;6.872;2024-02-28T01:45:45;2.90;99.90
37530;DHT22;23374;52.758;6.872;2024-02-28T01:48:12;2.90;94.20
37530;DHT22;23374;52.758;6.872;2024-02-28T01:50:33;2.90;99.90
37530;DHT22;23374;52.758;6.872;2024-02-28T01:52:54;2.90;99.90
37530;DHT22;23374;52.758;6.872;2024-02-28T01:55:14;2.90;99.90
37530;DHT22;23374;52.758;6.872;2024-02-28T01:57:35;2.90;99.90
37530;DHT22;23374;52.758;6.872;2024-02-28T01:59:57;2.90;79.70
37530;DHT22;23374;52.758;6.872;2024-02-28T02:02:18;2.90;89.90
37530;DHT22;23374;52.758;6.872;2024-02-28T02:04:51;2.80;99.90
37530;DHT22;23374;52.758;6.872;2024-02-28T02:07:15;2.80;99.90
37530;DHT22;23374;52.758;6.872;2024-02-28T02:09:36;2.90;99.90
37530;DHT22;23374;52.758;6.872;2024-02-28T02:11:56;2.90;99.90
37530;DHT22;23374;52.758;6.872;2024-02-28T02:14:17;2.80;99.90
37530;DHT22;23374;52.758;6.872;2024-02-28T02:16:37;2.80;99.90
37530;DHT22;23374;52.758;6.872;2024-02-28T02:18:57;2.80;99.90
37530;DHT22;23374;52.758;6.872;2024-02-28T02:21:20;2.80;99.90
37530;DHT22;23374;52.758;6.872;2024-02-28T02:23:42;2.80;99.90
37530;DHT22;23374;52.758;6.872;2024-02-28T02:26:03;2.90;99.90
37530;DHT22;23374;52.758;6.872;2024-02-28T02:28:23;2.90;99.90
37530;DHT22;23374;52.758;6.872;2024-02-28T02:30:44;2.90;99.90
37530;DHT22;23374;52.758;6.872;2024-02-28T02:33:06;2.80;99.90
37530;DHT22;23374;52.758;6.872;2024-02-28T02:35:27;2.80;99.90
37530;DHT22;23374;52.758;6.872;2024-02-28T02:37:47;2.90;99.90
37530;DHT22;23374;52.758;6.872;2024-02-28T02:40:09;2.90;99.90
37530;DHT22;23374;52.758;6.872;2024-02-28T02:42:30;2.90;99.90
37530;DHT22;23374;52.758;6.872;2024-02-28T02:44:51;2.90;1.00
37530;DHT22;23374;52.758;6.872;2024-02-28T02:47:11;2.90;1.00
37530;DHT22;23374;52.758;6.872;2024-02-28T02:49:31;3.00;99.90
37530;DHT22;23374;52.758;6.872;2024-02-28T02:51:52;3.00;99.90
37530;DHT22;23374;52.758;6.872;2024-02-28T02:54:13;2.90;99.90
37530;DHT22;23374;52.758;6.872;2024-02-28T02:56:34;2.90;99.90
37530;DHT22;23374;52.758;6.872;2024-02-28T02:58:54;2.90;1.00
37530;DHT22;23374;52.758;6.872;2024-02-28T03:01:15;2.90;99.90
37530;DHT22;23374;52.758;6.872;2024-02-28T03:03:35;2.90;99.90
37530;DHT22;23374;52.758;6.872;2024-02-28T03:05:58;2.90;99.90
37530;DHT22;23374;52.758;6.872;2024-02-28T03:08:18;2.90;99.90
37530;DHT22;23374;52.758;6.872;2024-02-28T03:10:39;2.90;99.90
37530;DHT22;23374;52.758;6.872;2024-02-28T03:13:00;2.90;1.00
37530;DHT22;23374;52.758;6.872;2024-02-28T03:15:22;2.90;1.00
37530;DHT22;23374;52.758;6.872;2024-02-28T03:17:42;2.90;1.00
37530;DHT22;23374;52.758;6.872;2024-02-28T03:20:04;2.90;99.90
37530;DHT22;23374;52.758;6.872;2024-02-28T03:22:26;2.90;99.90
37530;DHT22;23374;52.758;6.872;2024-02-28T03:24:47;2.90;99.90
37530;DHT22;23374;52.758;6.872;2024-02-28T03:27:08;2.90;1.00
37530;DHT22;23374;52.758;6.872;2024-02-28T03:29:29;2.90;1.00
37530;DHT22;23374;52.758;6.872;2024-02-28T03:31:49;2.90;99.90
37530;DHT22;23374;52.758;6.872;2024-02-28T03:35:46;2.90;99.90
37530;DHT22;23374;52.758;6.872;2024-02-28T03:38:07;2.90;99.90
37530;DHT22;23374;52.758;6.872;2024-02-28T03:40:27;2.80;99.90
37530;DHT22;23374;52.758;6.872;2024-02-28T03:42:48;2.80;99.90
37530;DHT22;23374;52.758;6.872;2024-02-28T03:45:08;2.80;99.90
37530;DHT22;23374;52.758;6.872;2024-02-28T03:47:29;2.80;99.90
37530;DHT22;23374;52.758;6.872;2024-02-28T03:49:49;2.80;99.90
37530;DHT22;23374;52.758;6.872;2024-02-28T03:52:10;2.80;99.90
37530;DHT22;23374;52.758;6.872;2024-02-28T03:54:30;2.80;99.90
37530;DHT22;23374;52.758;6.872;2024-02-28T03:56:51;2.80;99.90
37530;DHT22;23374;52.758;6.872;2024-02-28T03:59:11;2.80;99.90
37530;DHT22;23374;52.758;6.872;2024-02-28T04:01:32;2.90;99.90
37530;DHT22;23374;52.758;6.872;2024-02-28T04:03:52;2.90;99.90
37530;DHT22;23374;52.758;6.872;2024-02-28T04:06:13;2.90;1.00
37530;DHT22;23374;52.758;6.872;2024-02-28T04:08:33;2.90;99.90
37530;DHT22;23374;52.758;6.872;2024-02-28T04:10:53;2.90;99.90
37530;DHT22;23374;52.758;6.872;2024-02-28T04:13:13;2.90;99.90
37530;DHT22;23374;52.758;6.872;2024-02-28T04:15:34;2.90;99.90
37530;DHT22;23374;52.758;6.872;2024-02-28T04:17:55;2.90;99.90
37530;DHT22;23374;52.758;6.872;2024-02-28T04:20:15;2.90;99.90
37530;DHT22;23374;52.758;6.872;2024-02-28T04:22:36;2.90;99.90
37530;DHT22;23374;52.758;6.872;2024-02-28T04:24:56;2.90;99.90
37530;DHT22;23374;52.758;6.872;2024-02-28T04:27:17;2.90;99.90
37530;DHT22;23374;52.758;6.872;2024-02-28T04:29:38;2.90;99.90
37530;DHT22;23374;52.758;6.872;2024-02-28T04:31:59;2.90;99.90
37530;DHT22;23374;52.758;6.872;2024-02-28T04:35:52;2.90;99.90
37530;DHT22;23374;52.758;6.872;2024-02-28T04:38:12;2.90;99.90
37530;DHT22;23374;52.758;6.872;2024-02-28T04:40:32;2.90;99.90
37530;DHT22;23374;52.758;6.872;2024-02-28T04:42:53;2.90;99.90
37530;DHT22;23374;52.758;6.872;2024-02-28T04:45:13;3.00;99.90
37530;DHT22;23374;52.758;6.872;2024-02-28T04:47:34;3.00;99.90
37530;DHT22;23374;52.758;6.872;2024-02-28T04:49:54;3.00;99.90
37530;DHT22;23374;52.758;6.872;2024-02-28T04:52:15;2.90;99.90
37530;DHT22;23374;52.758;6.872;2024-02-28T04:54:35;2.90;99.90
37530;DHT22;23374;52.758;6.872;2024-02-28T04:56:56;2.90;99.90
37530;DHT22;23374;52.758;6.872;2024-02-28T04:59:16;2.90;99.90
37530;DHT22;23374;52.758;6.872;2024-02-28T05:01:36;2.90;99.90
37530;DHT22;23374;52.758;6.872;2024-02-28T05:03:59;2.90;99.90
37530;DHT22;23374;52.758;6.872;2024-02-28T05:06:20;2.90;99.90
37530;DHT22;23374;52.758;6.872;2024-02-28T05:08:40;3.00;99.90
37530;DHT22;23374;52.758;6.872;2024-02-28T05:11:00;3.00;99.90
37530;DHT22;23374;52.758;6.872;2024-02-28T05:13:21;3.00;99.90
37530;DHT22;23374;52.758;6.872;2024-02-28T05:15:43;3.00;99.90
37530;DHT22;23374;52.758;6.872;2024-02-28T05:18:04;3.00;99.90
37530;DHT22;23374;52.758;6.872;2024-02-28T05:20:24;3.10;99.90
37530;DHT22;23374;52.758;6.872;2024-02-28T05:22:44;3.10;99.90
37530;DHT22;23374;52.758;6.872;2024-02-28T05:25:05;3.10;97.30
37530;DHT22;23374;52.758;6.872;2024-02-28T05:27:25;3.10;99.90
37530;DHT22;23374;52.758;6.872;2024-02-28T05:29:45;3.10;99.90
37530;DHT22;23374;52.758;6.872;2024-02-28T05:32:06;3.10;99.90
37530;DHT22;23374;52.758;6.872;2024-02-28T05:34:26;3.10;99.90
37530;DHT22;23374;52.758;6.872;2024-02-28T05:36:46;3.10;99.90
37530;DHT22;23374;52.758;6.872;2024-02-28T05:39:06;3.20;99.90
37530;DHT22;23374;52.758;6.872;2024-02-28T05:41:28;3.20;99.90
37530;DHT22;23374;52.758;6.872;2024-02-28T05:43:49;3.20;99.90
37530;DHT22;23374;52.758;6.872;2024-02-28T05:46:10;3.20;99.90
37530;DHT22;23374;52.758;6.872;2024-02-28T05:48:30;3.20;99.90
37530;DHT22;23374;52.758;6.872;2024-02-28T05:50:51;3.20;99.90
37530;DHT22;23374;52.758;6.872;2024-02-28T05:53:11;3.20;99.90
37530;DHT22;23374;52.758;6.872;2024-02-28T05:55:31;3.30;99.90
37530;DHT22;23374;52.758;6.872;2024-02-28T05:57:52;3.30;99.90
37530;DHT22;23374;52.758;6.872;2024-02-28T06:00:13;3.30;99.90
37530;DHT22;23374;52.758;6.872;2024-02-28T06:02:34;3.30;99.90
37530;DHT22;23374;52.758;6.872;2024-02-28T06:04:54;3.30;99.90
37530;DHT22;23374;52.758;6.872;2024-02-28T06:07:14;3.40;1.00
37530;DHT22;23374;52.758;6.872;2024-02-28T06:09:35;3.30;1.00
37530;DHT22;23374;52.758;6.872;2024-02-28T06:11:55;3.40;6.30
37530;DHT22;23374;52.758;6.872;2024-02-28T06:14:16;3.40;1.00
37530;DHT22;23374;52.758;6.872;2024-02-28T06:16:36;3.40;1.00
37530;DHT22;23374;52.758;6.872;2024-02-28T06:18:56;3.40;1.00
37530;DHT22;23374;52.758;6.872;2024-02-28T06:21:16;3.40;1.00
37530;DHT22;23374;52.758;6.872;2024-02-28T06:25:24;3.40;1.00
37530;DHT22;23374;52.758;6.872;2024-02-28T06:27:45;3.40;1.00
37530;DHT22;23374;52.758;6.872;2024-02-28T06:30:07;3.40;1.00
37530;DHT22;23374;52.758;6.872;2024-02-28T06:32:28;3.40;1.00
37530;DHT22;23374;52.758;6.872;2024-02-28T06:34:48;3.40;1.00
37530;DHT22;23374;52.758;6.872;2024-02-28T06:37:09;3.40;1.00
37530;DHT22;23374;52.758;6.872;2024-02-28T06:39:29;3.30;1.00
37530;DHT22;23374;52.758;6.872;2024-02-28T06:41:49;3.30;1.00
37530;DHT22;23374;52.758;6.872;2024-02-28T06:44:11;3.40;1.00
37530;DHT22;23374;52.758;6.872;2024-02-28T06:46:32;3.40;1.00
37530;DHT22;23374;52.758;6.872;2024-02-28T06:48:52;3.40;1.00
37530;DHT22;23374;52.758;6.872;2024-02-28T06:51:12;3.50;1.00
37530;DHT22;23374;52.758;6.872;2024-02-28T06:53:33;3.50;1.00
37530;DHT22;23374;52.758;6.872;2024-02-28T06:55:53;3.60;1.00
37530;DHT22;23374;52.758;6.872;2024-02-28T06:58:14;3.60;1.00
37530;DHT22;23374;52.758;6.872;2024-02-28T07:00:35;3.60;1.00
37530;DHT22;23374;52.758;6.872;2024-02-28T07:02:55;3.70;1.00
37530;DHT22;23374;52.758;6.872;2024-02-28T07:05:17;3.70;1.00
37530;DHT22;23374;52.758;6.872;2024-02-28T07:07:37;3.70;1.00
37530;DHT22;23374;52.758;6.872;2024-02-28T07:09:58;3.70;1.00
37530;DHT22;23374;52.758;6.872;2024-02-28T07:12:18;3.70;1.00
37530;DHT22;23374;52.758;6.872;2024-02-28T07:14:38;3.70;1.00
37530;DHT22;23374;52.758;6.872;2024-02-28T07:16:59;3.70;1.00
37530;DHT22;23374;52.758;6.872;2024-02-28T07:19:20;3.70;1.00
37530;DHT22;23374;52.758;6.872;2024-02-28T07:21:41;3.70;1.00
37530;DHT22;23374;52.758;6.872;2024-02-28T07:24:01;3.70;1.00
37530;DHT22;23374;52.758;6.872;2024-02-28T07:26:23;3.80;99.90
37530;DHT22;23374;52.758;6.872;2024-02-28T07:28:43;3.80;1.00
37530;DHT22;23374;52.758;6.872;2024-02-28T07:31:16;3.70;99.90
37530;DHT22;23374;52.758;6.872;2024-02-28T07:33:36;3.70;99.90
37530;DHT22;23374;52.758;6.872;2024-02-28T07:35:56;3.70;99.90
37530;DHT22;23374;52.758;6.872;2024-02-28T07:38:21;3.70;99.90
37530;DHT22;23374;52.758;6.872;2024-02-28T07:40:41;3.70;99.90
37530;DHT22;23374;52.758;6.872;2024-02-28T07:43:01;3.80;99.90
37530;DHT22;23374;52.758;6.872;2024-02-28T07:45:22;3.80;99.90
37530;DHT22;23374;52.758;6.872;2024-02-28T07:47:42;3.80;99.90
37530;DHT22;23374;52.758;6.872;2024-02-28T07:50:04;3.80;99.90
37530;DHT22;23374;52.758;6.872;2024-02-28T07:52:25;3.80;99.90
37530;DHT22;23374;52.758;6.872;2024-02-28T07:54:46;3.80;99.90
37530;DHT22;23374;52.758;6.872;2024-02-28T07:57:06;3.80;99.90
37530;DHT22;23374;52.758;6.872;2024-02-28T07:59:27;3.80;99.90
37530;DHT22;23374;52.758;6.872;2024-02-28T08:01:48;3.90;99.90
37530;DHT22;23374;52.758;6.872;2024-02-28T08:04:08;3.90;99.90
37530;DHT22;23374;52.758;6.872;2024-02-28T08:06:28;3.90;99.90
37530;DHT22;23374;52.758;6.872;2024-02-28T08:08:49;3.90;99.90
37530;DHT22;23374;52.758;6.872;2024-02-28T08:11:09;3.80;99.90
37530;DHT22;23374;52.758;6.872;2024-02-28T08:13:30;3.90;99.90
37530;DHT22;23374;52.758;6.872;2024-02-28T08:15:53;3.90;99.90
37530;DHT22;23374;52.758;6.872;2024-02-28T08:18:13;3.90;99.90
37530;DHT22;23374;52.758;6.872;2024-02-28T08:20:34;4.00;99.90
37530;DHT22;23374;52.758;6.872;2024-02-28T08:22:54;4.00;99.90
37530;DHT22;23374;52.758;6.872;2024-02-28T08:25:17;4.00;99.90
37530;DHT22;23374;52.758;6.872;2024-02-28T08:27:38;4.00;99.90
37530;DHT22;23374;52.758;6.872;2024-02-28T08:29:58;4.00;99.90
37530;DHT22;23374;52.758;6.872;2024-02-28T08:32:19;4.00;99.90
37530;DHT22;23374;52.758;6.872;2024-02-28T08:34:44;4.10;99.90
37530;DHT22;23374;52.758;6.872;2024-02-28T08:37:05;4.10;99.90
37530;DHT22;23374;52.758;6.872;2024-02-28T08:39:26;4.00;99.90
37530;DHT22;23374;52.758;6.872;2024-02-28T08:41:46;4.00;31.30
37530;DHT22;23374;52.758;6.872;2024-02-28T08:44:06;4.00;16.60
37530;DHT22;23374;52.758;6.872;2024-02-28T08:46:26;4.00;99.90
37530;DHT22;23374;52.758;6.872;2024-02-28T08:48:46;4.00;15.50
37530;DHT22;23374;52.758;6.872;2024-02-28T08:51:07;4.00;99.90
37530;DHT22;23374;52.758;6.872;2024-02-28T08:53:27;4.00;99.90
37530;DHT22;23374;52.758;6.872;2024-02-28T08:55:47;4.00;99.90
37530;DHT22;23374;52.758;6.872;2024-02-28T08:58:07;4.00;99.90
37530;DHT22;23374;52.758;6.872;2024-02-28T09:00:27;4.00;99.90
37530;DHT22;23374;52.758;6.872;2024-02-28T09:02:47;4.10;99.90
37530;DHT22;23374;52.758;6.872;2024-02-28T09:05:09;4.10;99.90
37530;DHT22;23374;52.758;6.872;2024-02-28T09:07:29;4.10;99.90
37530;DHT22;23374;52.758;6.872;2024-02-28T09:09:50;4.20;99.90
37530;DHT22;23374;52.758;6.872;2024-02-28T09:12:10;4.20;99.90
37530;DHT22;23374;52.758;6.872;2024-02-28T09:14:31;4.20;99.90
37530;DHT22;23374;52.758;6.872;2024-02-28T09:16:51;4.20;99.90
37530;DHT22;23374;52.758;6.872;2024-02-28T09:19:12;4.30;99.90
37530;DHT22;23374;52.758;6.872;2024-02-28T09:21:32;4.30;99.90
37530;DHT22;23374;52.758;6.872;2024-02-28T09:23:52;4.30;99.90
37530;DHT22;23374;52.758;6.872;2024-02-28T09:26:13;4.40;99.90
37530;DHT22;23374;52.758;6.872;2024-02-28T09:28:33;4.40;99.90
37530;DHT22;23374;52.758;6.872;2024-02-28T09:30:54;4.40;99.90
37530;DHT22;23374;52.758;6.872;2024-02-28T09:33:14;4.50;99.90
37530;DHT22;23374;52.758;6.872;2024-02-28T09:35:36;4.50;99.90
37530;DHT22;23374;52.758;6.872;2024-02-28T09:37:56;4.60;99.90
37530;DHT22;23374;52.758;6.872;2024-02-28T09:40:16;4.60;99.90
37530;DHT22;23374;52.758;6.872;2024-02-28T09:42:37;4.70;99.90
37530;DHT22;23374;52.758;6.872;2024-02-28T09:45:01;4.70;99.90
37530;DHT22;23374;52.758;6.872;2024-02-28T09:47:21;4.80;99.90
37530;DHT22;23374;52.758;6.872;2024-02-28T09:49:45;4.80;99.90
37530;DHT22;23374;52.758;6.872;2024-02-28T09:52:10;4.80;99.90
37530;DHT22;23374;52.758;6.872;2024-02-28T09:54:30;4.90;99.90
37530;DHT22;23374;52.758;6.872;2024-02-28T09:56:51;5.00;99.90
37530;DHT22;23374;52.758;6.872;2024-02-28T09:59:12;5.00;99.90
37530;DHT22;23374;52.758;6.872;2024-02-28T10:01:37;5.00;99.90
37530;DHT22;23374;52.758;6.872;2024-02-28T10:04:02;5.10;99.90
37530;DHT22;23374;52.758;6.872;2024-02-28T10:06:22;5.10;44.70
37530;DHT22;23374;52.758;6.872;2024-02-28T10:08:44;5.10;99.90
37530;DHT22;23374;52.758;6.872;2024-02-28T10:11:07;5.20;99.90
37530;DHT22;23374;52.758;6.872;2024-02-28T10:13:27;5.30;99.90
37530;DHT22;23374;52.758;6.872;2024-02-28T10:15:49;5.40;99.90
37530;DHT22;23374;52.758;6.872;2024-02-28T10:18:10;5.50;99.90
37530;DHT22;23374;52.758;6.872;2024-02-28T10:20:31;5.60;99.90
37530;DHT22;23374;52.758;6.872;2024-02-28T10:22:52;5.70;99.90
37530;DHT22;23374;52.758;6.872;2024-02-28T10:25:14;5.80;99.90
37530;DHT22;23374;52.758;6.872;2024-02-28T10:27:35;5.90;99.90
37530;DHT22;23374;52.758;6.872;2024-02-28T10:29:55;6.00;96.60
37530;DHT22;23374;52.758;6.872;2024-02-28T10:32:15;6.00;21.60
37530;DHT22;23374;52.758;6.872;2024-02-28T10:34:37;6.10;1.00
37530;DHT22;23374;52.758;6.872;2024-02-28T10:36:58;6.20;1.00
37530;DHT22;23374;52.758;6.872;2024-02-28T10:39:19;6.20;1.00
37530;DHT22;23374;52.758;6.872;2024-02-28T10:41:43;6.20;1.00
37530;DHT22;23374;52.758;6.872;2024-02-28T10:44:04;6.10;1.00
37530;DHT22;23374;52.758;6.872;2024-02-28T10:46:24;6.10;1.00
37530;DHT22;23374;52.758;6.872;2024-02-28T10:48:45;6.10;1.00
37530;DHT22;23374;52.758;6.872;2024-02-28T10:51:08;6.10;1.00
37530;DHT22;23374;52.758;6.872;2024-02-28T10:53:41;6.00;1.00
37530;DHT22;23374;52.758;6.872;2024-02-28T10:56:03;6.10;1.00
37530;DHT22;23374;52.758;6.872;2024-02-28T10:58:25;6.10;1.00
37530;DHT22;23374;52.758;6.872;2024-02-28T11:00:48;6.10;1.00
37530;DHT22;23374;52.758;6.872;2024-02-28T11:03:11;6.20;1.00
37530;DHT22;23374;52.758;6.872;2024-02-28T11:05:40;6.20;1.00
37530;DHT22;23374;52.758;6.872;2024-02-28T11:08:00;6.20;1.00
37530;DHT22;23374;52.758;6.872;2024-02-28T11:10:30;6.20;1.00
37530;DHT22;23374;52.758;6.872;2024-02-28T11:12:56;6.20;1.00
37530;DHT22;23374;52.758;6.872;2024-02-28T11:15:18;6.30;1.00
37530;DHT22;23374;52.758;6.872;2024-02-28T11:17:39;6.30;1.00
37530;DHT22;23374;52.758;6.872;2024-02-28T11:20:00;6.40;1.00
37530;DHT22;23374;52.758;6.872;2024-02-28T11:22:31;6.40;1.00
37530;DHT22;23374;52.758;6.872;2024-02-28T11:24:56;6.50;1.00
37530;DHT22;23374;52.758;6.872;2024-02-28T11:27:17;6.60;1.00
37530;DHT22;23374;52.758;6.872;2024-02-28T11:29:37;6.60;1.00
37530;DHT22;23374;52.758;6.872;2024-02-28T11:31:58;6.70;99.90
37530;DHT22;23374;52.758;6.872;2024-02-28T11:34:19;6.70;1.00
37530;DHT22;23374;52.758;6.872;2024-02-28T11:36:41;6.70;1.00
37530;DHT22;23374;52.758;6.872;2024-02-28T11:39:01;6.80;99.90
37530;DHT22;23374;52.758;6.872;2024-02-28T11:41:27;6.80;99.90
37530;DHT22;23374;52.758;6.872;2024-02-28T11:43:48;6.80;99.90
37530;DHT22;23374;52.758;6.872;2024-02-28T11:46:09;6.80;99.90
37530;DHT22;23374;52.758;6.872;2024-02-28T11:48:33;6.80;99.90
37530;DHT22;23374;52.758;6.872;2024-02-28T11:50:54;6.80;99.90
37530;DHT22;23374;52.758;6.872;2024-02-28T11:53:14;6.80;99.90
37530;DHT22;23374;52.758;6.872;2024-02-28T11:55:35;6.80;1.00
37530;DHT22;23374;52.758;6.872;2024-02-28T11:57:56;6.90;1.00
37530;DHT22;23374;52.758;6.872;2024-02-28T12:00:16;6.90;1.00
37530;DHT22;23374;52.758;6.872;2024-02-28T12:02:37;7.00;1.00
37530;DHT22;23374;52.758;6.872;2024-02-28T12:05:01;7.00;99.90
37530;DHT22;23374;52.758;6.872;2024-02-28T12:07:22;7.00;99.90
37530;DHT22;23374;52.758;6.872;2024-02-28T12:09:42;6.90;99.90
37530;DHT22;23374;52.758;6.872;2024-02-28T12:12:07;7.00;99.90
37530;DHT22;23374;52.758;6.872;2024-02-28T12:14:31;7.00;99.90
37530;DHT22;23374;52.758;6.872;2024-02-28T12:16:51;7.00;99.90
37530;DHT22;23374;52.758;6.872;2024-02-28T12:19:12;7.10;99.90
37530;DHT22;23374;52.758;6.872;2024-02-28T12:21:33;7.00;99.90
37530;DHT22;23374;52.758;6.872;2024-02-28T12:23:56;7.00;95.80
37530;DHT22;23374;52.758;6.872;2024-02-28T12:26:19;7.10;99.90
37530;DHT22;23374;52.758;6.872;2024-02-28T12:28:40;7.10;99.90
37530;DHT22;23374;52.758;6.872;2024-02-28T12:31:00;7.10;99.90
37530;DHT22;23374;52.758;6.872;2024-02-28T12:33:20;7.10;99.90
37530;DHT22;23374;52.758;6.872;2024-02-28T12:35:40;7.10;99.90
37530;DHT22;23374;52.758;6.872;2024-02-28T12:38:02;7.10;99.90
37530;DHT22;23374;52.758;6.872;2024-02-28T12:40:22;7.10;99.90
37530;DHT22;23374;52.758;6.872;2024-02-28T12:42:43;7.10;99.90
37530;DHT22;23374;52.758;6.872;2024-02-28T12:45:04;7.10;99.90
37530;DHT22;23374;52.758;6.872;2024-02-28T12:47:25;7.20;99.90
37530;DHT22;23374;52.758;6.872;2024-02-28T12:49:45;7.10;91.60
37530;DHT22;23374;52.758;6.872;2024-02-28T12:52:06;7.10;99.90
37530;DHT22;23374;52.758;6.872;2024-02-28T12:54:27;7.10;99.90
37530;DHT22;23374;52.758;6.872;2024-02-28T12:56:47;7.10;99.90
37530;DHT22;23374;52.758;6.872;2024-02-28T12:59:08;7.20;99.90
37530;DHT22;23374;52.758;6.872;2024-02-28T13:01:29;7.20;99.90
37530;DHT22;23374;52.758;6.872;2024-02-28T13:03:49;7.10;99.90
37530;DHT22;23374;52.758;6.872;2024-02-28T13:06:09;7.10;99.90
37530;DHT22;23374;52.758;6.872;2024-02-28T13:08:30;7.10;99.90
37530;DHT22;23374;52.758;6.872;2024-02-28T13:10:50;7.10;1.00
37530;DHT22;23374;52.758;6.872;2024-02-28T13:13:10;7.10;1.00
37530;DHT22;23374;52.758;6.872;2024-02-28T13:15:32;7.10;1.00
37530;DHT22;23374;52.758;6.872;2024-02-28T13:17:53;7.10;1.00
37530;DHT22;23374;52.758;6.872;2024-02-28T13:20:13;7.10;1.00
37530;DHT22;23374;52.758;6.872;2024-02-28T13:22:33;7.10;1.00
37530;DHT22;23374;52.758;6.872;2024-02-28T13:24:53;7.10;1.00
37530;DHT22;23374;52.758;6.872;2024-02-28T13:27:14;7.10;1.00
37530;DHT22;23374;52.758;6.872;2024-02-28T13:29:35;7.20;1.00
37530;DHT22;23374;52.758;6.872;2024-02-28T13:31:56;7.20;1.00
37530;DHT22;23374;52.758;6.872;2024-02-28T13:34:16;7.20;1.00
37530;DHT22;23374;52.758;6.872;2024-02-28T13:36:36;7.20;1.00
37530;DHT22;23374;52.758;6.872;2024-02-28T13:39:02;7.20;1.00
37530;DHT22;23374;52.758;6.872;2024-02-28T13:41:23;7.30;1.00
37530;DHT22;23374;52.758;6.872;2024-02-28T13:43:43;7.30;1.00
37530;DHT22;23374;52.758;6.872;2024-02-28T13:46:04;7.30;1.00
37530;DHT22;23374;52.758;6.872;2024-02-28T13:48:24;7.30;1.00
37530;DHT22;23374;52.758;6.872;2024-02-28T13:50:45;7.30;1.00
37530;DHT22;23374;52.758;6.872;2024-02-28T13:53:06;7.40;1.00
37530;DHT22;23374;52.758;6.872;2024-02-28T13:55:26;7.40;1.00
37530;DHT22;23374;52.758;6.872;2024-02-28T13:57:47;7.40;1.00
37530;DHT22;23374;52.758;6.872;2024-02-28T14:00:08;7.40;1.00
37530;DHT22;23374;52.758;6.872;2024-02-28T14:02:31;7.50;1.00
37530;DHT22;23374;52.758;6.872;2024-02-28T14:04:55;7.50;99.90
37530;DHT22;23374;52.758;6.872;2024-02-28T14:07:16;7.50;99.90
37530;DHT22;23374;52.758;6.872;2024-02-28T14:09:36;7.60;99.90
37530;DHT22;23374;52.758;6.872;2024-02-28T14:11:57;7.60;99.90
37530;DHT22;23374;52.758;6.872;2024-02-28T14:14:17;7.60;99.90
37530;DHT22;23374;52.758;6.872;2024-02-28T14:16:37;7.60;54.60
37530;DHT22;23374;52.758;6.872;2024-02-28T14:18:58;7.60;99.90
37530;DHT22;23374;52.758;6.872;2024-02-28T14:21:19;7.70;99.90
37530;DHT22;23374;52.758;6.872;2024-02-28T14:23:40;7.70;99.00
37530;DHT22;23374;52.758;6.872;2024-02-28T14:26:01;7.70;7.30
37530;DHT22;23374;52.758;6.872;2024-02-28T14:28:22;7.70;1.00
37530;DHT22;23374;52.758;6.872;2024-02-28T14:30:42;7.70;9.70
37530;DHT22;23374;52.758;6.872;2024-02-28T14:33:04;7.70;1.00
37530;DHT22;23374;52.758;6.872;2024-02-28T14:35:24;7.70;1.00
37530;DHT22;23374;52.758;6.872;2024-02-28T14:37:45;7.70;1.00
37530;DHT22;23374;52.758;6.872;2024-02-28T14:40:08;7.70;1.00
37530;DHT22;23374;52.758;6.872;2024-02-28T14:42:32;7.70;1.00
37530;DHT22;23374;52.758;6.872;2024-02-28T14:44:53;7.70;1.00
37530;DHT22;23374;52.758;6.872;2024-02-28T14:47:14;7.70;1.00
37530;DHT22;23374;52.758;6.872;2024-02-28T14:49:34;7.70;1.00
37530;DHT22;23374;52.758;6.872;2024-02-28T14:51:54;7.70;1.00
37530;DHT22;23374;52.758;6.872;2024-02-28T14:54:16;7.70;1.00
37530;DHT22;23374;52.758;6.872;2024-02-28T14:56:38;7.70;1.00
37530;DHT22;23374;52.758;6.872;2024-02-28T14:58:58;7.70;1.00
37530;DHT22;23374;52.758;6.872;2024-02-28T15:01:19;7.80;1.00
37530;DHT22;23374;52.758;6.872;2024-02-28T15:03:39;7.80;1.00
37530;DHT22;23374;52.758;6.872;2024-02-28T15:06:00;7.80;1.00
37530;DHT22;23374;52.758;6.872;2024-02-28T15:08:21;7.80;1.00
37530;DHT22;23374;52.758;6.872;2024-02-28T15:10:41;7.90;1.00
37530;DHT22;23374;52.758;6.872;2024-02-28T15:13:01;7.90;1.00
37530;DHT22;23374;52.758;6.872;2024-02-28T15:15:22;7.90;1.00
37530;DHT22;23374;52.758;6.872;2024-02-28T15:17:43;7.90;1.00